»·PEaware :: N5419H KSNA-KSAN

N5419H :: KSNA-KSAN

FLIGHT INFORMATION

Flight Status: Arrived
Operator: Privately registered:
United States
More flights under this callsign
Pilot: J.R. H. (1229)
Aircraft: BOEING 737-800
(B738)
More flights by this aircraft type
Origin: KSNA John Wayne-Orange Co
United States
Destination: KSAN San Diego Intl-Lindbergh
United States
More flights between these airports :: More routes between these airports
Route: +V25 PACIF V208 LAX118 CARDI MZB320 MZB
File this flight plan on PilotEdge
Remarks:
Altitude:
(Current/Filed)
6,000ft
Speed:
(Current/Filed)
250kts
Departed: 09-Jun-18 03:13 PM
Arrived: 09-Jun-18 03:50 PM
Distance/Time
Traveled:
66nm/0:37
Distance/Time
To Go:
Arrived

Flight Plot

Page will automatically refresh every two minutes.


Map Options




Map Legend


Flown Route
Filed Route
Departure Airport
Arrival Airport
Navaid (VOR, NDB)
Fix

Horizontal Profiles

Position Reports

Time Latitude Longitude Heading Altitude Ground
Speed
09-Jun-18 14:45 33.680868 -117.862138 194 64ft 0kts
09-Jun-18 14:46 33.680868 -117.862138 194 64ft 0kts
09-Jun-18 14:47 33.680868 -117.862138 194 64ft 0kts
09-Jun-18 14:48 33.680868 -117.862138 194 64ft 0kts
09-Jun-18 14:49 33.680868 -117.862138 194 64ft 0kts
09-Jun-18 14:50 33.680868 -117.862138 194 64ft 0kts
09-Jun-18 14:51 33.680868 -117.862138 194 64ft 0kts
09-Jun-18 14:52 33.680868 -117.862138 194 64ft 0kts
09-Jun-18 14:53 33.680868 -117.862138 194 64ft 0kts
09-Jun-18 14:54 33.680868 -117.862138 194 64ft 0kts
09-Jun-18 14:55 33.680868 -117.862138 194 64ft 0kts
09-Jun-18 14:56 33.680868 -117.862138 194 64ft 0kts
09-Jun-18 14:57 33.680868 -117.862138 194 64ft 0kts
09-Jun-18 14:58 33.680868 -117.862138 194 64ft 0kts
09-Jun-18 14:59 33.680868 -117.862138 194 64ft 0kts
09-Jun-18 15:00 33.680868 -117.862138 194 64ft 0kts
09-Jun-18 15:01 33.680868 -117.862138 194 64ft 0kts
09-Jun-18 15:02 33.680868 -117.862138 194 64ft 0kts
09-Jun-18 15:03 33.680868 -117.862138 194 64ft 0kts
09-Jun-18 15:04 33.680868 -117.862138 194 64ft 0kts
09-Jun-18 15:05 33.680868 -117.862138 194 64ft 0kts
09-Jun-18 15:06 33.680868 -117.862138 194 64ft 0kts
09-Jun-18 15:07 33.680868 -117.862138 194 64ft 0kts
09-Jun-18 15:08 33.680768 -117.862192 211 64ft 3kts
09-Jun-18 15:09 33.680594 -117.862822 282 64ft 0kts
09-Jun-18 15:10 33.681202 -117.864360 300 64ft 9kts
09-Jun-18 15:11 33.680023 -117.866161 208 64ft 8kts
09-Jun-18 15:12 33.679944 -117.866212 208 64ft 0kts
09-Jun-18 15:13 33.672703 -117.870801 208 64ft 109kts
09-Jun-18 15:14 33.631603 -117.898966 198 1159ft 215kts
09-Jun-18 15:15 33.572658 -117.918618 192 3470ft 246kts
09-Jun-18 15:16 33.508347 -117.929618 186 6491ft 236kts
09-Jun-18 15:17 33.443641 -117.939954 185 8946ft 244kts
09-Jun-18 15:18 33.399217 -117.894206 103 11000ft 250kts
09-Jun-18 15:19 33.360730 -117.829404 135 10997ft 255kts
09-Jun-18 15:20 33.306676 -117.770579 135 10996ft 272kts
09-Jun-18 15:21 33.272498 -117.682907 100 11014ft 347kts
09-Jun-18 15:22 33.253323 -117.572820 100 10999ft 350kts
09-Jun-18 15:23 33.234575 -117.463370 99 11000ft 349kts
09-Jun-18 15:24 33.213180 -117.354431 117 10981ft 354kts
09-Jun-18 15:25 33.131705 -117.334848 217 11008ft 361kts
09-Jun-18 15:26 33.055944 -117.395821 172 10507ft 346kts
09-Jun-18 15:27 32.982679 -117.338044 154 7013ft 302kts
09-Jun-18 15:28 32.919090 -117.302450 153 7002ft 246kts
09-Jun-18 15:29 32.861308 -117.270240 153 6999ft 237kts
09-Jun-18 15:30 32.804543 -117.235955 126 6982ft 232kts
09-Jun-18 15:31 32.786641 -117.165038 101 6936ft 223kts
09-Jun-18 15:32 32.772890 -117.093791 101 6001ft 226kts
09-Jun-18 15:33 32.759194 -117.022939 101 5230ft 222kts
09-Jun-18 15:34 32.747302 -116.952013 73 4979ft 220kts
09-Jun-18 15:35 32.789844 -116.957523 285 5040ft 230kts
09-Jun-18 15:36 32.801121 -117.030308 280 5001ft 229kts
09-Jun-18 15:37 32.811784 -117.104436 281 4996ft 230kts
09-Jun-18 15:38 32.821877 -117.172993 281 4993ft 230kts
09-Jun-18 15:39 32.832679 -117.247303 280 4997ft 229kts
09-Jun-18 15:40 32.842693 -117.317413 281 4980ft 218kts
09-Jun-18 15:41 32.852232 -117.384568 281 4853ft 203kts
09-Jun-18 15:42 32.861540 -117.450524 280 3606ft 203kts
09-Jun-18 15:43 32.828210 -117.470049 134 3031ft 178kts
09-Jun-18 15:44 32.794633 -117.429186 128 2998ft 175kts
09-Jun-18 15:45 32.778943 -117.377497 104 3028ft 167kts
09-Jun-18 15:46 32.766871 -117.327842 104 2370ft 147kts
09-Jun-18 15:47 32.756147 -117.283259 103 1562ft 142kts
09-Jun-18 15:48 32.745753 -117.240107 104 783ft 141kts
09-Jun-18 15:49 32.735279 -117.197034 102 26ft 135kts
09-Jun-18 15:50 32.732592 -117.186157 96 14ft 0kts

Navigation Log

Ident Type
Flight plan parsing failed, navigation log unavailable